sensor_id;sensor_type;location;lat;lon;timestamp;P1;durP1;ratioP1;P2;durP2;ratioP2
26774;SDS011;14362;51.902;7.626;2023-08-12T00:01:53;15.85;;;11.27;;
26774;SDS011;14362;51.902;7.626;2023-08-12T00:05:55;14.23;;;10.98;;
26774;SDS011;14362;51.902;7.626;2023-08-12T00:09:57;16.98;;;11.63;;
26774;SDS011;14362;51.902;7.626;2023-08-12T00:13:58;15.43;;;12.88;;
26774;SDS011;14362;51.902;7.626;2023-08-12T00:18:01;18.02;;;12.35;;
26774;SDS011;14362;51.902;7.626;2023-08-12T00:22:06;17.23;;;12.60;;
26774;SDS011;14362;51.902;7.626;2023-08-12T00:26:08;13.18;;;11.82;;
26774;SDS011;14362;51.902;7.626;2023-08-12T00:30:09;16.50;;;12.77;;
26774;SDS011;14362;51.902;7.626;2023-08-12T00:34:12;12.48;;;10.60;;
26774;SDS011;14362;51.902;7.626;2023-08-12T00:38:14;12.98;;;11.02;;
26774;SDS011;14362;51.902;7.626;2023-08-12T00:42:15;13.15;;;10.65;;
26774;SDS011;14362;51.902;7.626;2023-08-12T00:46:17;13.52;;;10.93;;
26774;SDS011;14362;51.902;7.626;2023-08-12T00:50:20;11.80;;;10.60;;
26774;SDS011;14362;51.902;7.626;2023-08-12T00:54:22;11.65;;;10.55;;
26774;SDS011;14362;51.902;7.626;2023-08-12T00:58:26;11.80;;;10.17;;
26774;SDS011;14362;51.902;7.626;2023-08-12T01:02:27;13.60;;;10.70;;
26774;SDS011;14362;51.902;7.626;2023-08-12T01:06:30;12.20;;;10.30;;
26774;SDS011;14362;51.902;7.626;2023-08-12T01:10:34;12.65;;;10.55;;
26774;SDS011;14362;51.902;7.626;2023-08-12T01:14:39;11.57;;;10.27;;
26774;SDS011;14362;51.902;7.626;2023-08-12T01:18:47;12.13;;;9.77;;
26774;SDS011;14362;51.902;7.626;2023-08-12T01:22:57;11.60;;;10.45;;
26774;SDS011;14362;51.902;7.626;2023-08-12T01:27:01;12.40;;;10.73;;
26774;SDS011;14362;51.902;7.626;2023-08-12T01:31:03;10.98;;;9.82;;
26774;SDS011;14362;51.902;7.626;2023-08-12T01:35:13;11.75;;;10.55;;
26774;SDS011;14362;51.902;7.626;2023-08-12T01:39:18;12.32;;;11.13;;
26774;SDS011;14362;51.902;7.626;2023-08-12T01:43:22;11.77;;;10.68;;
26774;SDS011;14362;51.902;7.626;2023-08-12T01:47:24;13.80;;;12.27;;
26774;SDS011;14362;51.902;7.626;2023-08-12T01:51:27;14.20;;;12.68;;
26774;SDS011;14362;51.902;7.626;2023-08-12T01:55:30;13.48;;;11.52;;
26774;SDS011;14362;51.902;7.626;2023-08-12T01:59:33;13.20;;;11.90;;
26774;SDS011;14362;51.902;7.626;2023-08-12T02:03:34;11.52;;;10.45;;
26774;SDS011;14362;51.902;7.626;2023-08-12T02:07:36;13.93;;;12.30;;
26774;SDS011;14362;51.902;7.626;2023-08-12T02:11:37;14.80;;;13.07;;
26774;SDS011;14362;51.902;7.626;2023-08-12T02:15:40;14.10;;;12.52;;
26774;SDS011;14362;51.902;7.626;2023-08-12T02:19:41;14.68;;;13.20;;
26774;SDS011;14362;51.902;7.626;2023-08-12T02:23:43;16.35;;;12.90;;
26774;SDS011;14362;51.902;7.626;2023-08-12T02:27:45;15.45;;;13.73;;
26774;SDS011;14362;51.902;7.626;2023-08-12T02:31:48;14.15;;;12.75;;
26774;SDS011;14362;51.902;7.626;2023-08-12T02:35:52;14.35;;;12.90;;
26774;SDS011;14362;51.902;7.626;2023-08-12T02:39:54;14.82;;;13.15;;
26774;SDS011;14362;51.902;7.626;2023-08-12T02:43:56;15.82;;;14.25;;
26774;SDS011;14362;51.902;7.626;2023-08-12T02:47:58;15.07;;;13.52;;
26774;SDS011;14362;51.902;7.626;2023-08-12T02:52:00;14.73;;;12.88;;
26774;SDS011;14362;51.902;7.626;2023-08-12T02:56:01;15.20;;;13.13;;
26774;SDS011;14362;51.902;7.626;2023-08-12T03:00:03;16.13;;;14.38;;
26774;SDS011;14362;51.902;7.626;2023-08-12T03:04:07;17.65;;;15.95;;
26774;SDS011;14362;51.902;7.626;2023-08-12T03:08:08;17.85;;;16.05;;
26774;SDS011;14362;51.902;7.626;2023-08-12T03:12:10;17.33;;;15.43;;
26774;SDS011;14362;51.902;7.626;2023-08-12T03:16:11;19.60;;;17.65;;
26774;SDS011;14362;51.902;7.626;2023-08-12T03:20:15;19.40;;;17.50;;
26774;SDS011;14362;51.902;7.626;2023-08-12T03:24:17;20.13;;;18.08;;
26774;SDS011;14362;51.902;7.626;2023-08-12T03:28:18;19.70;;;17.67;;
26774;SDS011;14362;51.902;7.626;2023-08-12T03:32:20;20.75;;;18.60;;
26774;SDS011;14362;51.902;7.626;2023-08-12T03:36:23;20.10;;;17.98;;
26774;SDS011;14362;51.902;7.626;2023-08-12T03:40:24;20.13;;;18.00;;
26774;SDS011;14362;51.902;7.626;2023-08-12T03:44:26;20.00;;;17.80;;
26774;SDS011;14362;51.902;7.626;2023-08-12T03:48:27;19.48;;;17.55;;
26774;SDS011;14362;51.902;7.626;2023-08-12T03:52:30;21.70;;;19.13;;
26774;SDS011;14362;51.902;7.626;2023-08-12T03:56:31;21.38;;;19.30;;
26774;SDS011;14362;51.902;7.626;2023-08-12T04:00:33;22.17;;;19.50;;
26774;SDS011;14362;51.902;7.626;2023-08-12T04:04:35;22.02;;;19.75;;
26774;SDS011;14362;51.902;7.626;2023-08-12T04:08:38;21.45;;;19.25;;
26774;SDS011;14362;51.902;7.626;2023-08-12T04:12:39;21.15;;;18.85;;
26774;SDS011;14362;51.902;7.626;2023-08-12T04:16:41;21.73;;;19.70;;
26774;SDS011;14362;51.902;7.626;2023-08-12T04:20:44;21.40;;;19.13;;
26774;SDS011;14362;51.902;7.626;2023-08-12T04:24:47;24.38;;;21.83;;
26774;SDS011;14362;51.902;7.626;2023-08-12T04:28:49;22.67;;;20.42;;
26774;SDS011;14362;51.902;7.626;2023-08-12T04:32:51;25.88;;;22.95;;
26774;SDS011;14362;51.902;7.626;2023-08-12T04:36:52;25.98;;;23.15;;
26774;SDS011;14362;51.902;7.626;2023-08-12T04:40:55;25.45;;;22.65;;
26774;SDS011;14362;51.902;7.626;2023-08-12T04:44:57;24.52;;;22.02;;
26774;SDS011;14362;51.902;7.626;2023-08-12T04:48:58;24.40;;;21.83;;
26774;SDS011;14362;51.902;7.626;2023-08-12T04:52:59;25.08;;;22.55;;
26774;SDS011;14362;51.902;7.626;2023-08-12T04:57:03;24.73;;;22.13;;
26774;SDS011;14362;51.902;7.626;2023-08-12T05:01:05;25.27;;;22.63;;
26774;SDS011;14362;51.902;7.626;2023-08-12T05:05:08;26.02;;;22.90;;
26774;SDS011;14362;51.902;7.626;2023-08-12T05:09:10;23.05;;;20.55;;
26774;SDS011;14362;51.902;7.626;2023-08-12T05:13:13;24.88;;;22.35;;
26774;SDS011;14362;51.902;7.626;2023-08-12T05:17:14;26.40;;;23.63;;
26774;SDS011;14362;51.902;7.626;2023-08-12T05:21:15;25.55;;;22.90;;
26774;SDS011;14362;51.902;7.626;2023-08-12T05:25:17;27.90;;;24.98;;
26774;SDS011;14362;51.902;7.626;2023-08-12T05:29:20;24.75;;;22.05;;
26774;SDS011;14362;51.902;7.626;2023-08-12T05:33:21;26.02;;;23.33;;
26774;SDS011;14362;51.902;7.626;2023-08-12T05:37:23;29.60;;;26.40;;
26774;SDS011;14362;51.902;7.626;2023-08-12T05:41:25;27.73;;;24.73;;
26774;SDS011;14362;51.902;7.626;2023-08-12T05:45:28;27.23;;;24.52;;
26774;SDS011;14362;51.902;7.626;2023-08-12T05:49:29;32.05;;;26.73;;
26774;SDS011;14362;51.902;7.626;2023-08-12T05:53:31;30.02;;;26.88;;
26774;SDS011;14362;51.902;7.626;2023-08-12T05:57:33;31.30;;;27.98;;
26774;SDS011;14362;51.902;7.626;2023-08-12T06:01:35;32.78;;;29.27;;
26774;SDS011;14362;51.902;7.626;2023-08-12T06:05:37;32.80;;;27.65;;
26774;SDS011;14362;51.902;7.626;2023-08-12T06:09:38;29.75;;;25.13;;
26774;SDS011;14362;51.902;7.626;2023-08-12T06:13:40;29.00;;;25.92;;
26774;SDS011;14362;51.902;7.626;2023-08-12T06:17:43;31.27;;;27.67;;
26774;SDS011;14362;51.902;7.626;2023-08-12T06:21:45;31.48;;;26.52;;
26774;SDS011;14362;51.902;7.626;2023-08-12T06:25:47;28.00;;;24.25;;
26774;SDS011;14362;51.902;7.626;2023-08-12T06:29:48;28.92;;;25.83;;
26774;SDS011;14362;51.902;7.626;2023-08-12T06:33:51;30.10;;;25.75;;
26774;SDS011;14362;51.902;7.626;2023-08-12T06:37:52;28.42;;;24.20;;
26774;SDS011;14362;51.902;7.626;2023-08-12T06:41:54;27.80;;;24.42;;
26774;SDS011;14362;51.902;7.626;2023-08-12T06:45:55;24.80;;;22.23;;
26774;SDS011;14362;51.902;7.626;2023-08-12T06:49:58;27.23;;;24.25;;
26774;SDS011;14362;51.902;7.626;2023-08-12T06:54:00;26.83;;;24.02;;
26774;SDS011;14362;51.902;7.626;2023-08-12T06:58:01;26.45;;;21.95;;
26774;SDS011;14362;51.902;7.626;2023-08-12T07:02:03;28.23;;;24.92;;
26774;SDS011;14362;51.902;7.626;2023-08-12T07:06:06;25.02;;;21.17;;
26774;SDS011;14362;51.902;7.626;2023-08-12T07:10:07;29.17;;;23.10;;
26774;SDS011;14362;51.902;7.626;2023-08-12T07:14:09;24.08;;;21.48;;
26774;SDS011;14362;51.902;7.626;2023-08-12T07:18:10;24.38;;;21.67;;
26774;SDS011;14362;51.902;7.626;2023-08-12T07:22:13;24.92;;;22.45;;
26774;SDS011;14362;51.902;7.626;2023-08-12T07:26:18;25.88;;;23.15;;
26774;SDS011;14362;51.902;7.626;2023-08-12T07:30:20;24.10;;;20.13;;
26774;SDS011;14362;51.902;7.626;2023-08-12T07:34:21;22.42;;;20.13;;
26774;SDS011;14362;51.902;7.626;2023-08-12T07:38:24;22.50;;;19.40;;
26774;SDS011;14362;51.902;7.626;2023-08-12T07:42:26;22.30;;;18.25;;
26774;SDS011;14362;51.902;7.626;2023-08-12T07:46:27;22.65;;;19.95;;
26774;SDS011;14362;51.902;7.626;2023-08-12T07:50:29;20.88;;;18.67;;
26774;SDS011;14362;51.902;7.626;2023-08-12T07:54:32;21.85;;;19.63;;
26774;SDS011;14362;51.902;7.626;2023-08-12T07:58:34;23.08;;;20.38;;
26774;SDS011;14362;51.902;7.626;2023-08-12T08:02:35;21.25;;;19.00;;
26774;SDS011;14362;51.902;7.626;2023-08-12T08:06:36;18.45;;;16.13;;
26774;SDS011;14362;51.902;7.626;2023-08-12T08:10:39;18.88;;;16.85;;
26774;SDS011;14362;51.902;7.626;2023-08-12T08:14:41;18.30;;;16.52;;
26774;SDS011;14362;51.902;7.626;2023-08-12T08:18:42;16.25;;;14.27;;
26774;SDS011;14362;51.902;7.626;2023-08-12T08:22:44;14.95;;;13.43;;
26774;SDS011;14362;51.902;7.626;2023-08-12T08:26:46;14.13;;;12.77;;
26774;SDS011;14362;51.902;7.626;2023-08-12T08:30:48;14.77;;;13.48;;
26774;SDS011;14362;51.902;7.626;2023-08-12T08:34:49;14.00;;;11.27;;
26774;SDS011;14362;51.902;7.626;2023-08-12T08:38:51;11.10;;;10.10;;
26774;SDS011;14362;51.902;7.626;2023-08-12T08:42:54;9.45;;;8.55;;
26774;SDS011;14362;51.902;7.626;2023-08-12T08:47:01;9.02;;;8.15;;
26774;SDS011;14362;51.902;7.626;2023-08-12T08:51:03;7.22;;;6.55;;
26774;SDS011;14362;51.902;7.626;2023-08-12T08:55:06;7.40;;;6.70;;
26774;SDS011;14362;51.902;7.626;2023-08-12T08:59:10;6.68;;;5.82;;
26774;SDS011;14362;51.902;7.626;2023-08-12T09:03:12;6.40;;;5.80;;
26774;SDS011;14362;51.902;7.626;2023-08-12T09:07:15;6.47;;;5.72;;
26774;SDS011;14362;51.902;7.626;2023-08-12T09:11:17;5.78;;;5.25;;
26774;SDS011;14362;51.902;7.626;2023-08-12T09:15:20;5.80;;;5.20;;
26774;SDS011;14362;51.902;7.626;2023-08-12T09:19:22;6.97;;;5.47;;
26774;SDS011;14362;51.902;7.626;2023-08-12T09:23:25;6.15;;;5.50;;
26774;SDS011;14362;51.902;7.626;2023-08-12T09:27:27;5.25;;;4.70;;
26774;SDS011;14362;51.902;7.626;2023-08-12T09:31:32;5.75;;;5.13;;
26774;SDS011;14362;51.902;7.626;2023-08-12T09:35:34;8.02;;;4.85;;
26774;SDS011;14362;51.902;7.626;2023-08-12T09:39:36;6.53;;;5.00;;
26774;SDS011;14362;51.902;7.626;2023-08-12T09:43:40;6.70;;;5.63;;
26774;SDS011;14362;51.902;7.626;2023-08-12T09:47:44;5.97;;;5.45;;
26774;SDS011;14362;51.902;7.626;2023-08-12T09:51:45;6.13;;;5.35;;
26774;SDS011;14362;51.902;7.626;2023-08-12T09:55:47;5.60;;;5.10;;
26774;SDS011;14362;51.902;7.626;2023-08-12T09:59:49;5.60;;;4.70;;
26774;SDS011;14362;51.902;7.626;2023-08-12T10:03:55;5.50;;;5.00;;
26774;SDS011;14362;51.902;7.626;2023-08-12T10:07:56;5.43;;;4.53;;
26774;SDS011;14362;51.902;7.626;2023-08-12T10:11:58;4.50;;;4.10;;
26774;SDS011;14362;51.902;7.626;2023-08-12T10:16:00;5.53;;;4.57;;
26774;SDS011;14362;51.902;7.626;2023-08-12T10:20:04;5.50;;;4.50;;
26774;SDS011;14362;51.902;7.626;2023-08-12T10:24:08;6.22;;;4.90;;
26774;SDS011;14362;51.902;7.626;2023-08-12T10:28:11;5.23;;;4.73;;
26774;SDS011;14362;51.902;7.626;2023-08-12T10:32:13;4.93;;;4.45;;
26774;SDS011;14362;51.902;7.626;2023-08-12T10:36:16;5.88;;;4.90;;
26774;SDS011;14362;51.902;7.626;2023-08-12T10:40:19;5.53;;;5.07;;
26774;SDS011;14362;51.902;7.626;2023-08-12T10:44:25;5.97;;;5.43;;
26774;SDS011;14362;51.902;7.626;2023-08-12T10:48:28;5.20;;;4.70;;
26774;SDS011;14362;51.902;7.626;2023-08-12T10:52:31;5.00;;;4.60;;
26774;SDS011;14362;51.902;7.626;2023-08-12T10:56:45;6.18;;;4.57;;
26774;SDS011;14362;51.902;7.626;2023-08-12T11:01:08;5.07;;;4.63;;
26774;SDS011;14362;51.902;7.626;2023-08-12T11:05:14;5.15;;;4.75;;
26774;SDS011;14362;51.902;7.626;2023-08-12T11:09:17;5.70;;;4.80;;
26774;SDS011;14362;51.902;7.626;2023-08-12T11:13:18;6.90;;;4.50;;
26774;SDS011;14362;51.902;7.626;2023-08-12T11:17:20;5.05;;;4.60;;
26774;SDS011;14362;51.902;7.626;2023-08-12T11:21:33;4.20;;;3.90;;
26774;SDS011;14362;51.902;7.626;2023-08-12T11:25:39;3.63;;;3.33;;
26774;SDS011;14362;51.902;7.626;2023-08-12T11:29:42;3.67;;;3.42;;
26774;SDS011;14362;51.902;7.626;2023-08-12T11:33:44;3.45;;;3.22;;
26774;SDS011;14362;51.902;7.626;2023-08-12T11:37:46;3.20;;;3.00;;
26774;SDS011;14362;51.902;7.626;2023-08-12T11:41:49;3.65;;;3.35;;
26774;SDS011;14362;51.902;7.626;2023-08-12T11:45:51;3.60;;;3.30;;
26774;SDS011;14362;51.902;7.626;2023-08-12T11:49:52;4.32;;;3.92;;
26774;SDS011;14362;51.902;7.626;2023-08-12T11:53:54;5.20;;;4.82;;
26774;SDS011;14362;51.902;7.626;2023-08-12T11:57:57;5.80;;;5.28;;
26774;SDS011;14362;51.902;7.626;2023-08-12T12:02:01;6.43;;;5.93;;
26774;SDS011;14362;51.902;7.626;2023-08-12T12:06:03;5.72;;;5.32;;
26774;SDS011;14362;51.902;7.626;2023-08-12T12:10:05;5.35;;;4.95;;
26774;SDS011;14362;51.902;7.626;2023-08-12T12:14:09;5.05;;;4.68;;
26774;SDS011;14362;51.902;7.626;2023-08-12T12:18:11;5.88;;;5.40;;
26774;SDS011;14362;51.902;7.626;2023-08-12T12:22:13;5.10;;;4.70;;
26774;SDS011;14362;51.902;7.626;2023-08-12T12:26:14;5.03;;;4.63;;
26774;SDS011;14362;51.902;7.626;2023-08-12T12:30:18;5.18;;;4.78;;
26774;SDS011;14362;51.902;7.626;2023-08-12T12:34:19;5.70;;;5.20;;
26774;SDS011;14362;51.902;7.626;2023-08-12T12:38:21;4.82;;;4.43;;
26774;SDS011;14362;51.902;7.626;2023-08-12T12:42:23;5.63;;;5.13;;
26774;SDS011;14362;51.902;7.626;2023-08-12T12:46:26;4.57;;;4.28;;
26774;SDS011;14362;51.902;7.626;2023-08-12T12:50:27;4.18;;;3.90;;
26774;SDS011;14362;51.902;7.626;2023-08-12T12:54:28;4.22;;;3.92;;
26774;SDS011;14362;51.902;7.626;2023-08-12T12:58:31;5.22;;;4.82;;
26774;SDS011;14362;51.902;7.626;2023-08-12T13:02:34;5.15;;;4.75;;
26774;SDS011;14362;51.902;7.626;2023-08-12T13:06:36;4.90;;;4.40;;
26774;SDS011;14362;51.902;7.626;2023-08-12T13:10:37;4.32;;;4.00;;
26774;SDS011;14362;51.902;7.626;2023-08-12T13:14:38;3.45;;;3.25;;
26774;SDS011;14362;51.902;7.626;2023-08-12T13:18:42;4.20;;;3.63;;
26774;SDS011;14362;51.902;7.626;2023-08-12T13:22:43;4.00;;;3.60;;
26774;SDS011;14362;51.902;7.626;2023-08-12T13:26:45;4.32;;;3.92;;
26774;SDS011;14362;51.902;7.626;2023-08-12T13:30:47;3.90;;;3.60;;
26774;SDS011;14362;51.902;7.626;2023-08-12T13:34:49;3.55;;;3.35;;
26774;SDS011;14362;51.902;7.626;2023-08-12T13:38:51;3.38;;;3.15;;
26774;SDS011;14362;51.902;7.626;2023-08-12T13:42:52;3.80;;;3.50;;
26774;SDS011;14362;51.902;7.626;2023-08-12T13:46:54;3.60;;;3.30;;
26774;SDS011;14362;51.902;7.626;2023-08-12T13:50:57;3.70;;;3.42;;
26774;SDS011;14362;51.902;7.626;2023-08-12T13:54:58;4.10;;;3.65;;
26774;SDS011;14362;51.902;7.626;2023-08-12T13:58:59;3.30;;;3.10;;
26774;SDS011;14362;51.902;7.626;2023-08-12T14:03:01;3.50;;;3.20;;
26774;SDS011;14362;51.902;7.626;2023-08-12T14:07:04;3.92;;;3.17;;
26774;SDS011;14362;51.902;7.626;2023-08-12T14:11:06;3.92;;;3.60;;
26774;SDS011;14362;51.902;7.626;2023-08-12T14:15:08;3.75;;;3.45;;
26774;SDS011;14362;51.902;7.626;2023-08-12T14:19:10;6.45;;;4.90;;
26774;SDS011;14362;51.902;7.626;2023-08-12T14:23:13;5.38;;;4.93;;
26774;SDS011;14362;51.902;7.626;2023-08-12T14:27:15;6.35;;;5.63;;
26774;SDS011;14362;51.902;7.626;2023-08-12T14:31:17;5.05;;;4.65;;
26774;SDS011;14362;51.902;7.626;2023-08-12T14:35:19;5.68;;;5.28;;
26774;SDS011;14362;51.902;7.626;2023-08-12T14:39:22;5.05;;;4.65;;
26774;SDS011;14362;51.902;7.626;2023-08-12T14:43:23;7.30;;;5.80;;
26774;SDS011;14362;51.902;7.626;2023-08-12T14:47:25;10.32;;;5.90;;
26774;SDS011;14362;51.902;7.626;2023-08-12T14:51:26;6.25;;;3.47;;
26774;SDS011;14362;51.902;7.626;2023-08-12T14:55:30;4.90;;;3.50;;
26774;SDS011;14362;51.902;7.626;2023-08-12T14:59:32;3.30;;;3.00;;
26774;SDS011;14362;51.902;7.626;2023-08-12T15:03:33;4.95;;;3.63;;
26774;SDS011;14362;51.902;7.626;2023-08-12T15:07:35;3.78;;;3.50;;
26774;SDS011;14362;51.902;7.626;2023-08-12T15:11:38;3.97;;;3.58;;
26774;SDS011;14362;51.902;7.626;2023-08-12T15:15:39;3.92;;;2.88;;
26774;SDS011;14362;51.902;7.626;2023-08-12T15:19:40;3.80;;;3.13;;
26774;SDS011;14362;51.902;7.626;2023-08-12T15:23:42;2.80;;;2.60;;
26774;SDS011;14362;51.902;7.626;2023-08-12T15:27:45;2.95;;;2.60;;
26774;SDS011;14362;51.902;7.626;2023-08-12T15:31:46;3.20;;;2.90;;
26774;SDS011;14362;51.902;7.626;2023-08-12T15:35:48;3.30;;;3.00;;
26774;SDS011;14362;51.902;7.626;2023-08-12T15:39:49;2.92;;;2.60;;
26774;SDS011;14362;51.902;7.626;2023-08-12T15:43:52;2.70;;;2.50;;
26774;SDS011;14362;51.902;7.626;2023-08-12T15:47:54;4.55;;;2.45;;
26774;SDS011;14362;51.902;7.626;2023-08-12T15:51:55;3.08;;;2.47;;
26774;SDS011;14362;51.902;7.626;2023-08-12T15:55:57;2.95;;;1.80;;
26774;SDS011;14362;51.902;7.626;2023-08-12T15:59:59;2.28;;;1.70;;
26774;SDS011;14362;51.902;7.626;2023-08-12T16:04:01;3.70;;;1.85;;
26774;SDS011;14362;51.902;7.626;2023-08-12T16:08:03;3.85;;;1.80;;
26774;SDS011;14362;51.902;7.626;2023-08-12T16:12:05;2.40;;;2.00;;
26774;SDS011;14362;51.902;7.626;2023-08-12T16:16:08;3.47;;;2.20;;
26774;SDS011;14362;51.902;7.626;2023-08-12T16:20:10;3.07;;;2.13;;
26774;SDS011;14362;51.902;7.626;2023-08-12T16:24:12;4.00;;;1.80;;
26774;SDS011;14362;51.902;7.626;2023-08-12T16:28:13;4.72;;;1.90;;
26774;SDS011;14362;51.902;7.626;2023-08-12T16:32:16;4.72;;;2.38;;
26774;SDS011;14362;51.902;7.626;2023-08-12T16:36:17;5.75;;;2.50;;
26774;SDS011;14362;51.902;7.626;2023-08-12T16:40:19;5.65;;;2.22;;
26774;SDS011;14362;51.902;7.626;2023-08-12T16:44:20;4.68;;;2.28;;
26774;SDS011;14362;51.902;7.626;2023-08-12T16:48:23;2.78;;;2.10;;
26774;SDS011;14362;51.902;7.626;2023-08-12T16:52:25;5.00;;;2.42;;
26774;SDS011;14362;51.902;7.626;2023-08-12T16:56:26;2.38;;;1.70;;
26774;SDS011;14362;51.902;7.626;2023-08-12T17:00:28;5.65;;;2.25;;
26774;SDS011;14362;51.902;7.626;2023-08-12T17:04:30;6.13;;;2.05;;
26774;SDS011;14362;51.902;7.626;2023-08-12T17:08:32;4.65;;;2.22;;
26774;SDS011;14362;51.902;7.626;2023-08-12T17:12:33;5.30;;;2.22;;
26774;SDS011;14362;51.902;7.626;2023-08-12T17:16:35;5.18;;;2.40;;
26774;SDS011;14362;51.902;7.626;2023-08-12T17:20:38;4.53;;;1.90;;
26774;SDS011;14362;51.902;7.626;2023-08-12T17:24:39;12.88;;;2.35;;
26774;SDS011;14362;51.902;7.626;2023-08-12T17:28:41;3.88;;;1.90;;
26774;SDS011;14362;51.902;7.626;2023-08-12T17:32:42;4.55;;;2.10;;
26774;SDS011;14362;51.902;7.626;2023-08-12T17:36:45;4.53;;;2.20;;
26774;SDS011;14362;51.902;7.626;2023-08-12T17:40:48;10.10;;;2.50;;
26774;SDS011;14362;51.902;7.626;2023-08-12T17:44:49;7.47;;;2.60;;
26774;SDS011;14362;51.902;7.626;2023-08-12T17:48:51;5.55;;;2.38;;
26774;SDS011;14362;51.902;7.626;2023-08-12T17:52:54;8.00;;;2.50;;
26774;SDS011;14362;51.902;7.626;2023-08-12T17:56:55;6.90;;;2.00;;
26774;SDS011;14362;51.902;7.626;2023-08-12T18:00:57;6.07;;;2.50;;
26774;SDS011;14362;51.902;7.626;2023-08-12T18:04:58;3.40;;;1.90;;
26774;SDS011;14362;51.902;7.626;2023-08-12T18:09:01;8.57;;;2.10;;
26774;SDS011;14362;51.902;7.626;2023-08-12T18:13:03;4.95;;;2.55;;
26774;SDS011;14362;51.902;7.626;2023-08-12T18:17:05;6.75;;;2.83;;
26774;SDS011;14362;51.902;7.626;2023-08-12T18:21:06;6.00;;;2.55;;
26774;SDS011;14362;51.902;7.626;2023-08-12T18:25:09;6.38;;;2.53;;
26774;SDS011;14362;51.902;7.626;2023-08-12T18:29:10;5.95;;;2.75;;
26774;SDS011;14362;51.902;7.626;2023-08-12T18:33:12;8.65;;;3.28;;
26774;SDS011;14362;51.902;7.626;2023-08-12T18:37:13;6.20;;;2.47;;
26774;SDS011;14362;51.902;7.626;2023-08-12T18:41:16;5.18;;;2.58;;
26774;SDS011;14362;51.902;7.626;2023-08-12T18:45:18;7.97;;;2.78;;
26774;SDS011;14362;51.902;7.626;2023-08-12T18:49:19;7.07;;;2.88;;
26774;SDS011;14362;51.902;7.626;2023-08-12T18:53:21;7.68;;;2.78;;
26774;SDS011;14362;51.902;7.626;2023-08-12T18:57:23;7.03;;;3.05;;
26774;SDS011;14362;51.902;7.626;2023-08-12T19:01:25;8.15;;;3.22;;
26774;SDS011;14362;51.902;7.626;2023-08-12T19:05:27;8.02;;;3.05;;
26774;SDS011;14362;51.902;7.626;2023-08-12T19:09:29;6.82;;;3.47;;
26774;SDS011;14362;51.902;7.626;2023-08-12T19:13:31;8.00;;;3.35;;
26774;SDS011;14362;51.902;7.626;2023-08-12T19:17:33;7.85;;;3.35;;
26774;SDS011;14362;51.902;7.626;2023-08-12T19:21:35;7.78;;;3.15;;
26774;SDS011;14362;51.902;7.626;2023-08-12T19:25:37;8.25;;;4.15;;
26774;SDS011;14362;51.902;7.626;2023-08-12T19:29:39;9.32;;;4.57;;
26774;SDS011;14362;51.902;7.626;2023-08-12T19:33:41;10.15;;;4.80;;
26774;SDS011;14362;51.902;7.626;2023-08-12T19:37:42;9.00;;;4.90;;
26774;SDS011;14362;51.902;7.626;2023-08-12T19:41:44;10.18;;;3.97;;
26774;SDS011;14362;51.902;7.626;2023-08-12T19:45:47;5.80;;;4.22;;
26774;SDS011;14362;51.902;7.626;2023-08-12T19:49:48;6.32;;;4.30;;
26774;SDS011;14362;51.902;7.626;2023-08-12T19:53:58;15.50;;;5.45;;
26774;SDS011;14362;51.902;7.626;2023-08-12T19:57:59;7.38;;;4.78;;
26774;SDS011;14362;51.902;7.626;2023-08-12T20:02:01;8.32;;;4.80;;
26774;SDS011;14362;51.902;7.626;2023-08-12T20:06:04;8.45;;;5.00;;
26774;SDS011;14362;51.902;7.626;2023-08-12T20:10:07;9.45;;;5.93;;
26774;SDS011;14362;51.902;7.626;2023-08-12T20:14:09;6.25;;;4.68;;
26774;SDS011;14362;51.902;7.626;2023-08-12T20:18:11;12.27;;;5.43;;
26774;SDS011;14362;51.902;7.626;2023-08-12T20:22:12;9.57;;;5.53;;
26774;SDS011;14362;51.902;7.626;2023-08-12T20:26:15;9.20;;;5.43;;
26774;SDS011;14362;51.902;7.626;2023-08-12T20:30:17;7.18;;;5.38;;
26774;SDS011;14362;51.902;7.626;2023-08-12T20:34:18;9.27;;;5.65;;
26774;SDS011;14362;51.902;7.626;2023-08-12T20:38:20;11.18;;;5.50;;
26774;SDS011;14362;51.902;7.626;2023-08-12T20:42:22;6.88;;;5.95;;
26774;SDS011;14362;51.902;7.626;2023-08-12T20:46:24;8.07;;;5.90;;
26774;SDS011;14362;51.902;7.626;2023-08-12T20:50:25;10.43;;;6.68;;
26774;SDS011;14362;51.902;7.626;2023-08-12T20:54:27;8.88;;;5.88;;
26774;SDS011;14362;51.902;7.626;2023-08-12T20:58:30;9.27;;;5.18;;
26774;SDS011;14362;51.902;7.626;2023-08-12T21:02:31;9.50;;;4.93;;
26774;SDS011;14362;51.902;7.626;2023-08-12T21:06:33;9.77;;;5.13;;
26774;SDS011;14362;51.902;7.626;2023-08-12T21:10:34;8.75;;;4.15;;
26774;SDS011;14362;51.902;7.626;2023-08-12T21:14:37;10.85;;;3.85;;
26774;SDS011;14362;51.902;7.626;2023-08-12T21:18:38;5.95;;;3.33;;
26774;SDS011;14362;51.902;7.626;2023-08-12T21:22:41;8.32;;;3.78;;
26774;SDS011;14362;51.902;7.626;2023-08-12T21:26:44;5.70;;;3.97;;
26774;SDS011;14362;51.902;7.626;2023-08-12T21:30:47;10.70;;;4.60;;
26774;SDS011;14362;51.902;7.626;2023-08-12T21:34:48;8.30;;;4.82;;
26774;SDS011;14362;51.902;7.626;2023-08-12T21:38:50;7.38;;;4.57;;
26774;SDS011;14362;51.902;7.626;2023-08-12T21:42:51;11.32;;;5.95;;
26774;SDS011;14362;51.902;7.626;2023-08-12T21:46:54;10.25;;;6.07;;
26774;SDS011;14362;51.902;7.626;2023-08-12T21:50:56;15.52;;;7.65;;
26774;SDS011;14362;51.902;7.626;2023-08-12T21:54:57;15.32;;;7.32;;
26774;SDS011;14362;51.902;7.626;2023-08-12T21:58:59;15.63;;;6.70;;
26774;SDS011;14362;51.902;7.626;2023-08-12T22:03:01;13.57;;;6.50;;
26774;SDS011;14362;51.902;7.626;2023-08-12T22:07:03;19.02;;;10.55;;
26774;SDS011;14362;51.902;7.626;2023-08-12T22:11:05;20.08;;;9.75;;
26774;SDS011;14362;51.902;7.626;2023-08-12T22:15:07;15.65;;;9.18;;
26774;SDS011;14362;51.902;7.626;2023-08-12T22:19:11;13.23;;;7.25;;
26774;SDS011;14362;51.902;7.626;2023-08-12T22:23:12;13.20;;;7.30;;
26774;SDS011;14362;51.902;7.626;2023-08-12T22:27:14;12.50;;;6.95;;
26774;SDS011;14362;51.902;7.626;2023-08-12T22:31:15;11.63;;;7.95;;
26774;SDS011;14362;51.902;7.626;2023-08-12T22:35:18;14.13;;;8.18;;
26774;SDS011;14362;51.902;7.626;2023-08-12T22:39:20;11.77;;;7.35;;
26774;SDS011;14362;51.902;7.626;2023-08-12T22:43:22;8.20;;;6.38;;
26774;SDS011;14362;51.902;7.626;2023-08-12T22:47:23;9.60;;;6.20;;
26774;SDS011;14362;51.902;7.626;2023-08-12T22:51:26;9.57;;;5.90;;
26774;SDS011;14362;51.902;7.626;2023-08-12T22:55:28;8.05;;;5.00;;
26774;SDS011;14362;51.902;7.626;2023-08-12T22:59:29;8.93;;;4.70;;
26774;SDS011;14362;51.902;7.626;2023-08-12T23:03:31;6.97;;;4.93;;
26774;SDS011;14362;51.902;7.626;2023-08-12T23:07:33;8.27;;;5.07;;
26774;SDS011;14362;51.902;7.626;2023-08-12T23:11:35;7.75;;;4.43;;
26774;SDS011;14362;51.902;7.626;2023-08-12T23:15:36;7.63;;;4.50;;
26774;SDS011;14362;51.902;7.626;2023-08-12T23:19:38;7.45;;;5.13;;
26774;SDS011;14362;51.902;7.626;2023-08-12T23:23:41;8.38;;;5.22;;
26774;SDS011;14362;51.902;7.626;2023-08-12T23:27:42;7.45;;;5.43;;
26774;SDS011;14362;51.902;7.626;2023-08-12T23:31:44;6.80;;;5.55;;
26774;SDS011;14362;51.902;7.626;2023-08-12T23:35:45;7.38;;;6.40;;
26774;SDS011;14362;51.902;7.626;2023-08-12T23:39:48;8.65;;;6.15;;
26774;SDS011;14362;51.902;7.626;2023-08-12T23:43:50;8.88;;;6.50;;
26774;SDS011;14362;51.902;7.626;2023-08-12T23:47:52;7.78;;;6.10;;
26774;SDS011;14362;51.902;7.626;2023-08-12T23:51:53;10.32;;;5.85;;
26774;SDS011;14362;51.902;7.626;2023-08-12T23:55:56;7.60;;;6.38;;
26774;SDS011;14362;51.902;7.626;2023-08-12T23:59:57;9.95;;;6.18;;
